Data for 12/26/2005

Time Sea-Level Adjusted Pressure Absolute Pressure Temperature Relative Humidity Dew Point   
(mb) (inHg) (mb) (inHg) (C) (F) (%) (C) (F)
00:05 1009 29.8 839 24.78 7.9 46.1 44 -3.7 25.4
00:10 1009 29.8 839 24.78 8.5 47.2 43 -3.5 25.7
00:15 1009 29.8 838 24.75 8.4 47.1 44 -3.2 26.3
00:20 1009 29.8 838 24.75 8.2 46.8 44 -3.4 25.9
00:25 1009 29.8 838 24.75 8.2 46.7 44 -3.2 26.2
00:30 1009 29.8 838 24.75 8 46.4 45 -3.3 26.1
00:35 1009 29.8 838 24.75 7.9 46.3 44 -3.5 25.7
00:40 1009 29.8 838 24.75 8 46.5 44 -3.5 25.7
00:45 1009 29.8 838 24.75 7.9 46.2 45 -3.3 26
00:50 1009 29.8 838 24.75 7.6 45.6 48 -2.6 27.3
00:55 1009 29.8 838 24.75 6.5 43.7 53 -2.4 27.6
01:00 1009 29.8 838 24.75 6 42.7 51 -3.5 25.7
01:05 1009 29.8 838 24.75 6.6 43.9 50 -3.2 26.3
01:10 1009 29.8 838 24.75 6.7 44 48 -3.6 25.6
01:15 1009 29.8 838 24.75 7.6 45.8 45 -3.4 25.9
01:20 1009 29.8 838 24.75 7.6 45.7 48 -2.8 26.9
01:25 1009 29.8 838 24.75 7.3 45.1 46 -3.5 25.6
01:30 1008 29.77 838 24.75 7.5 45.5 45 -3.7 25.3
01:35 1008 29.77 838 24.75 6.9 44.3 51 -2.6 27.3
01:40 1008 29.77 838 24.75 5.9 42.6 54 -2.7 27.1
01:45 1009 29.8 838 24.75 5.5 41.9 53 -3.2 26.2
01:50 1009 29.8 838 24.75 6 42.8 50 -3.6 25.5
01:55 1009 29.8 838 24.75 6.5 43.7 48 -3.8 25.1
02:00 1009 29.8 838 24.75 6.7 44 48 -3.5 25.7
02:05 1009 29.8 838 24.75 6.1 43 52 -3.1 26.5
02:10 1009 29.8 838 24.75 5.3 41.5 55 -3.1 26.4
02:15 1009 29.8 838 24.75 4.9 40.8 56 -3.1 26.5
02:20 1008 29.77 838 24.75 4.3 39.7 59 -3.1 26.5
02:25 1008 29.77 838 24.75 4.5 40.1 57 -3.3 26
02:30 1009 29.8 838 24.75 4.5 40.1 58 -3.1 26.4
02:35 1009 29.8 838 24.75 4.6 40.3 57 -3.2 26.3
02:40 1009 29.8 838 24.75 3.9 39 60 -3.3 26.1
02:45 1009 29.8 838 24.75 4.1 39.3 58 -3.4 26
02:50 1009 29.8 838 24.75 4.1 39.4 58 -3.4 26
02:55 1009 29.8 838 24.75 4.1 39.4 58 -3.4 25.9
03:00 1008 29.77 838 24.75 4.2 39.6 56 -3.7 25.4
03:05 1008 29.77 838 24.75 4.3 39.8 56 -3.6 25.6
03:10 1008 29.77 838 24.75 4.3 39.7 57 -3.6 25.5
03:15 1008 29.77 838 24.75 4.4 40 57 -3.5 25.8
03:20 1008 29.77 838 24.75 4.3 39.7 56 -3.6 25.5
03:25 1008 29.77 837 24.72 4.5 40.1 56 -3.6 25.5
03:30 1008 29.77 837 24.72 4.4 40 56 -3.6 25.6
03:35 1008 29.77 837 24.72 4.2 39.5 56 -3.7 25.3
03:40 1008 29.77 837 24.72 4 39.3 56 -3.9 25.1
03:45 1008 29.77 837 24.72 3.9 39.1 57 -3.7 25.3
03:50 1008 29.77 837 24.72 4.1 39.3 56 -3.9 24.9
03:55 1008 29.77 837 24.72 4.1 39.4 56 -3.8 25.2
04:00 1008 29.77 837 24.72 4.5 40.2 54 -4 24.8
04:05 1008 29.77 837 24.72 4.9 40.9 55 -3.3 26
04:10 1008 29.77 837 24.72 4.8 40.6 55 -3.4 25.9
04:15 1008 29.77 837 24.72 4.6 40.2 56 -3.5 25.6
04:20 1008 29.77 837 24.72 4.5 40.2 55 -3.8 25.2
04:25 1008 29.77 837 24.72 4.7 40.5 54 -3.8 25.1
04:30 1008 29.77 837 24.72 5.2 41.3 53 -3.7 25.3
04:35 1008 29.77 838 24.75 5.5 41.8 52 -3.7 25.4
04:40 1008 29.77 838 24.75 5.5 41.9 53 -3.3 26.1
04:45 1008 29.77 838 24.75 5.4 41.8 53 -3.4 25.9
04:50 1008 29.77 838 24.75 5.5 41.9 54 -3.2 26.2
04:55 1008 29.77 837 24.72 4.5 40.1 56 -3.4 25.8
05:00 1008 29.77 837 24.72 4.2 39.5 56 -3.7 25.3
05:05 1008 29.77 838 24.75 4.2 39.5 57 -3.7 25.4
05:10 1008 29.77 837 24.72 4.2 39.5 56 -3.7 25.3
05:15 1008 29.77 837 24.72 4 39.2 57 -3.7 25.3
05:20 1008 29.77 837 24.72 4 39.3 57 -3.7 25.4
05:25 1008 29.77 837 24.72 4 39.3 57 -3.6 25.5
05:30 1008 29.77 837 24.72 4.2 39.5 56 -3.7 25.3
05:35 1008 29.77 837 24.72 3.9 39 59 -3.4 25.8
05:40 1008 29.77 837 24.72 3.5 38.3 60 -3.5 25.8
05:45 1008 29.77 837 24.72 3.4 38.2 60 -3.6 25.4
05:50 1008 29.77 837 24.72 3.7 38.7 59 -3.6 25.5
05:55 1008 29.77 837 24.72 3.7 38.7 59 -3.5 25.7
06:00 1008 29.77 837 24.72 3.7 38.7 59 -3.5 25.7
06:05 1008 29.77 837 24.72 3.8 38.8 59 -3.5 25.7
06:10 1007 29.74 837 24.72 3.9 39.1 58 -3.6 25.6
06:15 1007 29.74 837 24.72 4.2 39.5 57 -3.5 25.7
06:20 1007 29.74 837 24.72 4.3 39.7 58 -3.4 25.9
06:25 1007 29.74 836 24.69 4.3 39.7 57 -3.4 25.8
06:30 1007 29.74 836 24.69 4.4 39.9 56 -3.5 25.6
06:35 1007 29.74 836 24.69 4.3 39.7 57 -3.4 25.8
06:40 1007 29.74 836 24.69 4.6 40.2 55 -3.6 25.5
06:45 1007 29.74 836 24.69 4.7 40.5 56 -3.4 25.9
06:50 1007 29.74 836 24.69 4.7 40.5 56 -3.3 26.1
06:55 1007 29.74 836 24.69 4.5 40.1 57 -3.4 25.9
07:00 1007 29.74 836 24.69 4.4 39.9 57 -3.4 25.9
07:05 1007 29.74 836 24.69 4.4 39.9 56 -3.5 25.6
07:10 1007 29.74 836 24.69 4.5 40.1 57 -3.4 25.9
07:15 1007 29.74 836 24.69 4.4 40 56 -3.5 25.7
07:20 1007 29.74 836 24.69 5 40.9 54 -3.6 25.5
07:25 1007 29.74 836 24.69 4.9 40.8 55 -3.3 26.1
07:30 1007 29.74 836 24.69 4.6 40.3 56 -3.3 26
07:35 1007 29.74 836 24.69 4.5 40.1 56 -3.5 25.8
07:40 1007 29.74 836 24.69 4.3 39.8 57 -3.4 25.8
07:45 1007 29.74 836 24.69 4.5 40 56 -3.5 25.7
07:50 1007 29.74 836 24.69 4.5 40.2 56 -3.4 25.9
07:55 1007 29.74 836 24.69 4.5 40 56 -3.5 25.7
08:00 1007 29.74 836 24.69 4.5 40 57 -3.3 26.1
08:05 1007 29.74 836 24.69 4.2 39.6 59 -3.1 26.5
08:10 1007 29.74 836 24.69 4.2 39.6 57 -3.5 25.7
08:15 1007 29.74 836 24.69 4.6 40.3 56 -3.4 25.9
08:20 1007 29.74 836 24.69 4.7 40.5 56 -3.3 26
08:25 1007 29.74 836 24.69 4.7 40.4 56 -3.3 26
08:30 1007 29.74 836 24.69 4.6 40.3 56 -3.4 25.9
08:35 1007 29.74 836 24.69 4.3 39.7 60 -2.9 26.8
08:40 1007 29.74 836 24.69 3.8 38.8 61 -3.1 26.4
08:45 1007 29.74 836 24.69 3.6 38.6 62 -3 26.7
08:50 1007 29.74 836 24.69 3.4 38.2 63 -3 26.6
08:55 1007 29.74 836 24.69 3.5 38.4 61 -3.3 26.1
09:00 1007 29.74 837 24.72 3.9 39 59 -3.3 26.1
09:05 1007 29.74 837 24.72 4.1 39.4 58 -3.3 26
09:10 1007 29.74 837 24.72 4.5 40 58 -3.1 26.4
09:15 1007 29.74 837 24.72 4.5 40 59 -2.9 26.7
09:20 1007 29.74 837 24.72 4.3 39.8 59 -3 26.6
09:25 1007 29.74 836 24.69 4.4 39.8 58 -3.1 26.4
09:30 1007 29.74 837 24.72 4.3 39.7 59 -3 26.6
09:35 1007 29.74 837 24.72 4.2 39.6 60 -2.9 26.8
09:40 1007 29.74 837 24.72 4.2 39.5 60 -2.8 26.9
09:45 1007 29.74 837 24.72 4.1 39.4 61 -2.7 27.2
09:50 1007 29.74 837 24.72 4 39.2 61 -2.8 27
09:55 1007 29.74 837 24.72 4.3 39.8 59 -3 26.7
10:00 1007 29.74 837 24.72 4.7 40.4 57 -3.1 26.5
10:05 1007 29.74 837 24.72 4.9 40.9 56 -3.1 26.4
10:10 1008 29.77 837 24.72 5.2 41.4 55 -3 26.5
10:15 1008 29.77 837 24.72 5.5 42 54 -2.9 26.7
10:20 1008 29.77 837 24.72 5.6 42.2 54 -3 26.6
10:25 1008 29.77 837 24.72 5.6 42.1 55 -2.8 26.9
10:30 1008 29.77 837 24.72 5.7 42.3 54 -2.9 26.8
10:35 1008 29.77 837 24.72 5.8 42.5 54 -2.7 27.1
10:40 1008 29.77 837 24.72 6 42.8 53 -2.8 27
10:45 1008 29.77 837 24.72 6.3 43.3 53 -2.7 27.1
10:50 1008 29.77 837 24.72 6.4 43.5 53 -2.4 27.7
10:55 1008 29.77 837 24.72 6.4 43.5 53 -2.6 27.3
11:00 1008 29.77 837 24.72 6.4 43.5 53 -2.5 27.5
11:05 1008 29.77 837 24.72 6.2 43.2 56 -1.9 28.7
11:10 1008 29.77 837 24.72 5.7 42.3 57 -2 28.3
11:15 1008 29.77 837 24.72 5.5 41.8 60 -1.7 29
11:20 1008 29.77 837 24.72 5.2 41.3 60 -1.9 28.6
11:25 1008 29.77 837 24.72 5.4 41.7 60 -1.8 28.7
11:30 1008 29.77 837 24.72 5.5 41.9 58 -2 28.3
11:35 1008 29.77 837 24.72 5.6 42.1 56 -2.5 27.5
11:40 1008 29.77 837 24.72 5.8 42.5 57 -2 28.5
11:45 1008 29.77 837 24.72 6.2 43.1 57 -1.8 28.8
11:50 1008 29.77 837 24.72 6.4 43.5 56 -1.7 28.9
11:55 1008 29.77 837 24.72 6.6 43.8 56 -1.7 29
12:00 1007 29.74 837 24.72 6.4 43.5 55 -1.9 28.6
12:05 1007 29.74 837 24.72 6.2 43.2 56 -2 28.4
12:10 1007 29.74 837 24.72 6.3 43.3 56 -2 28.5
12:15 1007 29.74 837 24.72 6.3 43.3 56 -2 28.5
12:20 1007 29.74 837 24.72 6.3 43.4 55 -2.1 28.2
12:25 1007 29.74 836 24.69 6.5 43.7 55 -1.9 28.6
12:30 1007 29.74 836 24.69 6.5 43.8 55 -1.9 28.5
12:35 1007 29.74 836 24.69 6.5 43.7 56 -1.7 28.9
12:40 1007 29.74 836 24.69 6.5 43.7 55 -2 28.4
12:45 1007 29.74 836 24.69 6.5 43.6 55 -2 28.4
12:50 1007 29.74 836 24.69 6.6 43.8 58 -1.1 30
12:55 1007 29.74 836 24.69 6.7 44.1 56 -1.3 29.6
13:00 1007 29.74 836 24.69 6.8 44.2 55 -1.6 29.2
13:05 1007 29.74 836 24.69 6.6 44 57 -1.3 29.7
13:10 1007 29.74 836 24.69 6.7 44.1 57 -1.2 29.8
13:15 1007 29.74 836 24.69 6.8 44.2 57 -1.1 30.1
13:20 1007 29.74 836 24.69 6.9 44.4 56 -1.2 29.9
13:25 1007 29.74 836 24.69 7 44.5 55 -1.4 29.5
13:30 1007 29.74 836 24.69 7 44.6 57 -0.8 30.5
13:35 1007 29.74 836 24.69 7.1 44.8 57 -0.9 30.4
13:40 1007 29.74 836 24.69 6.9 44.4 58 -0.8 30.5
13:45 1007 29.74 836 24.69 6.5 43.6 57 -1.3 29.6
13:50 1007 29.74 836 24.69 6.6 43.8 59 -0.9 30.4
13:55 1007 29.74 836 24.69 6.5 43.6 60 -0.6 30.9
14:00 1007 29.74 836 24.69 6.1 43 61 -0.8 30.6
14:05 1007 29.74 836 24.69 6.1 42.9 62 -0.7 30.7
14:10 1007 29.74 836 24.69 6.4 43.5 60 -0.8 30.6
14:15 1007 29.74 836 24.69 6.9 44.3 60 -0.3 31.4
14:20 1007 29.74 836 24.69 6.8 44.3 59 -0.6 30.9
14:25 1007 29.74 836 24.69 6.7 44.1 60 -0.5 31.1
14:30 1007 29.74 836 24.69 6.7 44.1 60 -0.4 31.2
14:35 1007 29.74 836 24.69 6.6 43.9 61 -0.4 31.3
14:40 1007 29.74 836 24.69 6.3 43.3 63 -0.3 31.4
14:45 1007 29.74 836 24.69 6.2 43.2 63 -0.2 31.6
14:50 1007 29.74 836 24.69 6.3 43.3 63 -0.3 31.5
14:55 1007 29.74 836 24.69 6.1 43.1 64 -0.2 31.6
15:00 1007 29.74 836 24.69 6.1 42.9 64 -0.2 31.7
15:05 1007 29.74 837 24.72 6.2 43.2 64 -0.1 31.9
15:10 1007 29.74 837 24.72 6.4 43.5 63 -0.1 31.9
15:15 1007 29.74 837 24.72 6.5 43.7 63 -0 31.9
15:20 1007 29.74 837 24.72 6.6 43.8 63 0.1 32.2
15:25 1008 29.77 837 24.72 6.7 44 62 -0 31.9
15:30 1008 29.77 837 24.72 6.7 44.1 63 0.1 32.3
15:35 1008 29.77 837 24.72 6.8 44.2 63 0.3 32.6
15:40 1008 29.77 837 24.72 6.5 43.8 64 0.3 32.5
15:45 1008 29.77 837 24.72 6.2 43.2 66 0.2 32.4
15:50 1008 29.77 837 24.72 5.9 42.5 67 0.1 32.3
15:55 1008 29.77 837 24.72 5.6 42.1 67 0.1 32.1
16:00 1008 29.77 837 24.72 5.7 42.2 67 0.1 32.1
16:05 1008 29.77 837 24.72 6 42.7 66 0.2 32.3
16:10 1008 29.77 837 24.72 6.1 42.9 66 0.3 32.5
16:15 1008 29.77 837 24.72 5.5 41.9 69 0.3 32.5
16:20 1008 29.77 837 24.72 5.5 41.9 67 -0 32
16:25 1008 29.77 837 24.72 5.5 41.9 69 0.2 32.3
16:30 1008 29.77 837 24.72 5.1 41.2 69 -0.1 31.8
16:35 1008 29.77 837 24.72 5.2 41.4 69 -0 32
16:40 1008 29.77 837 24.72 5.1 41.2 69 -0 31.9
16:45 1008 29.77 838 24.75 5.1 41.2 69 -0 32
16:50 1008 29.77 838 24.75 5.1 41.1 69 -0.1 31.8
16:55 1008 29.77 838 24.75 5.1 41.2 69 -0.1 31.9
17:00 1008 29.77 838 24.75 4.9 40.9 70 -0 32
17:05 1009 29.8 838 24.75 5.1 41.2 69 -0.1 31.9
17:10 1009 29.8 838 24.75 5.4 41.8 68 0 32
17:15 1009 29.8 838 24.75 5.2 41.4 70 0.2 32.3
17:20 1009 29.8 838 24.75 5.3 41.5 69 0.2 32.3
17:25 1009 29.8 838 24.75 5.4 41.7 69 0.1 32.3
17:30 1009 29.8 838 24.75 5.4 41.7 69 0.2 32.3
17:35 1009 29.8 838 24.75 5.4 41.6 70 0.3 32.5
17:40 1009 29.8 838 24.75 5.3 41.6 70 0.3 32.5
17:45 1009 29.8 838 24.75 5.2 41.4 70 0.3 32.5
17:50 1009 29.8 838 24.75 4.9 40.9 72 0.3 32.6
17:55 1009 29.8 838 24.75 4.7 40.5 73 0.3 32.6
18:00 1009 29.8 838 24.75 4.6 40.3 74 0.3 32.5
18:05 1009 29.8 838 24.75 4.4 40 74 0.3 32.5
18:10 1009 29.8 838 24.75 4.4 40 74 0.3 32.5
18:15 1009 29.8 838 24.75 4.5 40 74 0.3 32.5
18:20 1009 29.8 838 24.75 4.5 40.1 74 0.3 32.6
18:25 1009 29.8 838 24.75 4.7 40.4 74 0.3 32.6
18:30 1009 29.8 838 24.75 4.6 40.2 74 0.4 32.7
18:35 1009 29.8 839 24.78 4.6 40.3 74 0.4 32.8
18:40 1009 29.8 839 24.78 4.8 40.7 73 0.5 32.9
18:45 1009 29.8 839 24.78 4.9 40.7 73 0.5 32.9
18:50 1009 29.8 839 24.78 4.9 40.8 74 0.5 33
18:55 1009 29.8 839 24.78 4.9 40.8 73 0.5 32.9
19:00 1009 29.8 839 24.78 4.8 40.6 73 0.5 32.8
19:05 1010 29.83 839 24.78 4.8 40.7 74 0.6 33.1
19:10 1010 29.83 839 24.78 4.8 40.7 74 0.5 33
19:15 1010 29.83 839 24.78 4.9 40.9 74 0.6 33.1
19:20 1010 29.83 839 24.78 4.9 40.8 74 0.6 33.1
19:25 1010 29.83 839 24.78 4.8 40.6 74 0.6 33
19:30 1010 29.83 839 24.78 4.8 40.6 74 0.6 33
19:35 1010 29.83 839 24.78 4.7 40.5 75 0.6 33
19:40 1010 29.83 839 24.78 4.7 40.5 75 0.6 33.2
19:45 1010 29.83 839 24.78 4.6 40.3 75 0.6 33.1
19:50 1010 29.83 839 24.78 4.5 40.1 76 0.6 33.1
19:55 1010 29.83 839 24.78 4.4 40 76 0.6 33
20:00 1010 29.83 839 24.78 4.2 39.5 77 0.5 32.9
20:05 1010 29.83 839 24.78 4.2 39.6 77 0.5 32.9
20:10 1010 29.83 839 24.78 4.2 39.5 77 0.6 33
20:15 1010 29.83 839 24.78 4.1 39.4 78 0.6 33.1
20:20 1010 29.83 840 24.81 4.1 39.3 78 0.5 33
20:25 1010 29.83 840 24.81 4 39.1 78 0.5 33
20:30 1010 29.83 840 24.81 4 39.1 78 0.5 32.9
20:35 1010 29.83 840 24.81 4 39.1 78 0.5 32.9
20:40 1010 29.83 840 24.81 4 39.2 78 0.5 32.9
20:45 1011 29.85 840 24.81 4 39.2 78 0.5 33
20:50 1011 29.85 840 24.81 4.1 39.5 77 0.5 32.9
20:55 1011 29.85 840 24.81 4.2 39.5 77 0.5 33
21:00 1011 29.85 840 24.81 4 39.3 78 0.6 33
21:05 1011 29.85 840 24.81 3.4 38.2 81 0.5 33
21:10 1011 29.85 840 24.81 3.2 37.8 81 0.4 32.7
21:15 1011 29.85 840 24.81 3.3 37.9 82 0.4 32.7
21:20 1011 29.85 840 24.81 3.4 38 81 0.4 32.7
21:25 1011 29.85 840 24.81 3.5 38.4 80 0.5 32.8
21:30 1011 29.85 840 24.81 3.4 38.2 81 0.5 32.8
21:35 1011 29.85 841 24.83 3.4 38.1 81 0.5 32.8
21:40 1011 29.85 841 24.83 3.5 38.3 80 0.4 32.8
21:45 1011 29.85 841 24.83 3.5 38.4 81 0.5 32.9
21:50 1011 29.85 841 24.83 3.7 38.6 80 0.5 32.9
21:55 1012 29.88 841 24.83 3.7 38.7 79 0.5 32.9
22:00 1012 29.88 841 24.83 3.8 38.8 79 0.5 32.8
22:05 1012 29.88 841 24.83 3.9 38.9 79 0.5 32.9
22:10 1012 29.88 841 24.83 3.8 38.9 80 0.6 33.1
22:15 1012 29.88 841 24.83 3.7 38.7 80 0.5 33
22:20 1012 29.88 841 24.83 3.7 38.7 80 0.6 33.1
22:25 1012 29.88 841 24.83 3.7 38.7 80 0.6 33
22:30 1012 29.88 841 24.83 3.7 38.7 80 0.6 33.1
22:35 1012 29.88 841 24.83 3.7 38.7 80 0.6 33.1
22:40 1012 29.88 841 24.83 3.7 38.6 80 0.6 33
22:45 1012 29.88 841 24.83 3.8 38.9 80 0.7 33.2
22:50 1012 29.88 842 24.86 3.8 38.8 80 0.6 33.1
22:55 1012 29.88 842 24.86 3.7 38.7 80 0.6 33.1
23:00 1012 29.88 842 24.86 3.8 38.8 80 0.6 33.2
23:05 1012 29.88 842 24.86 3.8 38.8 80 0.7 33.2
23:10 1013 29.91 842 24.86 3.7 38.7 81 0.7 33.3
23:15 1013 29.91 842 24.86 3.5 38.4 82 0.7 33.3
23:20 1013 29.91 842 24.86 3.5 38.3 82 0.7 33.3
23:25 1013 29.91 842 24.86 3.4 38.2 82 0.7 33.2
23:30 1013 29.91 842 24.86 3.5 38.2 82 0.7 33.3
23:35 1013 29.91 842 24.86 3.5 38.3 82 0.7 33.2
23:40 1013 29.91 842 24.86 3.6 38.5 82 0.8 33.4
23:45 1013 29.91 842 24.86 3.6 38.5 82 0.8 33.5
23:50 1013 29.91 842 24.86 3.3 38 84 0.8 33.5
23:55 1013 29.91 842 24.86 3.1 37.7 84 0.7 33.2
24:00 1013 29.91 842 24.86 2.9 37.3 85 0.7 33.2